Time;durP1;ratioP1;P1;durP2;ratioP2;P2;SDS_P1;SDS_P2;PMS_P1;PMS_P2;Temp;Humidity;BMP_temperature;BMP_pressure;BME280_temperature;BME280_humidity;BME280_pressure;Samples;Min_cycle;Max_cycle;Signal;HPM_P1;HPM_P2
2022/06/29 00:01:51;;;;;;;7.43;2.20;;;;;;;;;;6276904;22;20388;-70
2022/06/29 00:04:18;;;;;;;8.13;2.60;;;;;;;;;;6277034;22;20312;-70
2022/06/29 00:06:44;;;;;;;9.82;2.47;;;;;;;;;;6276505;22;20008;-70
2022/06/29 00:09:09;;;;;;;12.65;2.25;;;;;;;;;;6276929;22;20045;-70
2022/06/29 00:11:34;;;;;;;11.10;2.55;;;;;;;;;;6276602;22;20383;-70
2022/06/29 00:13:59;;;;;;;9.05;2.42;;;;;;;;;;6276898;22;20420;-70
2022/06/29 00:16:25;;;;;;;18.83;2.53;;;;;;;;;;6276308;22;19992;-71
2022/06/29 00:18:50;;;;;;;8.15;2.40;;;;;;;;;;6276448;22;20049;-71
2022/06/29 00:21:15;;;;;;;13.18;3.00;;;;;;;;;;6276726;22;20087;-70
2022/06/29 00:23:41;;;;;;;15.13;3.00;;;;;;;;;;6276846;22;20309;-71
2022/06/29 00:26:06;;;;;;;11.05;2.60;;;;;;;;;;6276309;22;20066;-71
2022/06/29 00:28:32;;;;;;;9.85;2.88;;;;;;;;;;6276748;22;20004;-71
2022/06/29 00:30:57;;;;;;;10.25;2.40;;;;;;;;;;6276532;22;19996;-71
2022/06/29 00:33:22;;;;;;;8.43;2.40;;;;;;;;;;6273030;22;19996;-70
2022/06/29 00:35:48;;;;;;;8.60;2.20;;;;;;;;;;6275160;22;20004;-71
2022/06/29 00:38:13;;;;;;;7.53;2.33;;;;;;;;;;6276349;22;20004;-70
2022/06/29 00:40:38;;;;;;;7.68;2.58;;;;;;;;;;6276498;22;20043;-71
2022/06/29 00:43:03;;;;;;;7.45;2.45;;;;;;;;;;6276269;22;20330;-70
2022/06/29 00:45:29;;;;;;;5.43;2.30;;;;;;;;;;6276130;22;19996;-71
2022/06/29 00:47:54;;;;;;;8.30;2.03;;;;;;;;;;6276625;22;19999;-71
2022/06/29 00:50:20;;;;;;;5.88;2.03;;;;;;;;;;6276318;22;20432;-71
2022/06/29 00:52:45;;;;;;;8.30;2.55;;;;;;;;;;6276831;22;19992;-70
2022/06/29 00:55:15;;;;;;;8.77;2.38;;;;;;;;;;6276013;22;20428;-70
2022/06/29 00:57:42;;;;;;;5.63;2.28;;;;;;;;;;6276479;22;20023;-71
2022/06/29 01:00:08;;;;;;;5.32;2.03;;;;;;;;;;6276146;22;20006;-71
2022/06/29 01:02:33;;;;;;;4.10;1.98;;;;;;;;;;6276724;22;19991;-70
2022/06/29 01:04:58;;;;;;;6.72;2.03;;;;;;;;;;6275986;22;20038;-71
2022/06/29 01:07:26;;;;;;;6.55;2.72;;;;;;;;;;6276357;22;20022;-71
2022/06/29 01:09:51;;;;;;;4.20;1.88;;;;;;;;;;6276313;22;20102;-71
2022/06/29 01:12:16;;;;;;;5.05;1.67;;;;;;;;;;6276634;22;20041;-71
2022/06/29 01:14:43;;;;;;;3.95;1.65;;;;;;;;;;6275846;22;20358;-71
2022/06/29 01:17:08;;;;;;;4.03;1.77;;;;;;;;;;6276324;22;20479;-71
2022/06/29 01:19:34;;;;;;;10.52;1.88;;;;;;;;;;6276440;22;20015;-71
2022/06/29 01:22:08;;;;;;;4.15;1.70;;;;;;;;;;6276395;22;20396;-71
2022/06/29 01:24:34;;;;;;;4.25;1.55;;;;;;;;;;6275974;22;20000;-71
2022/06/29 01:26:59;;;;;;;5.00;1.70;;;;;;;;;;6276552;22;20087;-71
2022/06/29 01:29:24;;;;;;;4.13;1.80;;;;;;;;;;6276328;22;20363;-72
2022/06/29 01:31:53;;;;;;;5.40;1.65;;;;;;;;;;6276225;22;19996;-70
2022/06/29 01:34:18;;;;;;;4.43;1.40;;;;;;;;;;6276475;22;20027;-71
2022/06/29 01:36:44;;;;;;;2.70;1.30;;;;;;;;;;6276150;22;20384;-71
2022/06/29 01:39:09;;;;;;;2.75;1.30;;;;;;;;;;6278226;22;20370;-71
2022/06/29 01:41:34;;;;;;;5.43;1.30;;;;;;;;;;6278163;22;20007;-71
2022/06/29 01:43:59;;;;;;;3.35;1.35;;;;;;;;;;6278731;22;19998;-71
2022/06/29 01:46:25;;;;;;;3.33;1.20;;;;;;;;;;6277790;22;19995;-71
2022/06/29 01:48:50;;;;;;;2.45;1.20;;;;;;;;;;6278039;22;20074;-71
2022/06/29 01:51:15;;;;;;;5.80;1.27;;;;;;;;;;6278460;22;19991;-71
2022/06/29 01:53:40;;;;;;;6.50;1.42;;;;;;;;;;6278080;22;20473;-71
2022/06/29 01:56:06;;;;;;;8.15;1.58;;;;;;;;;;6278024;22;20297;-71
2022/06/29 01:58:32;;;;;;;4.35;1.35;;;;;;;;;;6277897;22;20049;-71
2022/06/29 02:00:57;;;;;;;7.45;1.45;;;;;;;;;;6277708;22;20007;-71
2022/06/29 02:03:22;;;;;;;4.05;1.23;;;;;;;;;;6277476;22;20008;-70
2022/06/29 02:05:48;;;;;;;4.90;1.75;;;;;;;;;;6277592;22;20033;-71
2022/06/29 02:08:13;;;;;;;6.32;1.70;;;;;;;;;;6278229;22;20312;-71
2022/06/29 02:10:38;;;;;;;4.13;1.63;;;;;;;;;;6277741;22;20057;-71
2022/06/29 02:13:04;;;;;;;5.90;1.65;;;;;;;;;;6278249;22;20407;-70
2022/06/29 02:15:29;;;;;;;3.83;1.45;;;;;;;;;;6277465;22;20002;-71
2022/06/29 02:17:54;;;;;;;2.72;1.20;;;;;;;;;;6277275;22;20061;-71
2022/06/29 02:20:20;;;;;;;4.00;1.42;;;;;;;;;;6277674;22;20006;-72
2022/06/29 02:22:45;;;;;;;6.38;1.45;;;;;;;;;;6277748;22;20000;-71
2022/06/29 02:25:10;;;;;;;6.18;1.40;;;;;;;;;;6277834;22;20010;-71
2022/06/29 02:27:44;;;;;;;2.33;1.30;;;;;;;;;;6277961;22;20000;-71
2022/06/29 02:30:10;;;;;;;6.80;1.27;;;;;;;;;;6277232;22;20008;-71
2022/06/29 02:35:19;;;;;;;3.40;1.02;;;;;;;;;;6277263;22;20050;-71
2022/06/29 02:37:45;;;;;;;4.25;1.05;;;;;;;;;;6277433;22;20409;-71
2022/06/29 02:40:11;;;;;;;3.22;1.23;;;;;;;;;;6277281;22;20420;-71
2022/06/29 02:42:36;;;;;;;5.45;1.20;;;;;;;;;;6277680;22;19988;-71
2022/06/29 02:45:02;;;;;;;3.17;1.40;;;;;;;;;;6277358;22;20015;-71
2022/06/29 02:47:27;;;;;;;4.72;1.70;;;;;;;;;;6277326;22;20077;-70
2022/06/29 02:49:53;;;;;;;5.60;1.67;;;;;;;;;;6277433;22;20411;-71
2022/06/29 02:52:18;;;;;;;5.72;1.45;;;;;;;;;;6277670;22;20031;-71
2022/06/29 02:54:43;;;;;;;9.35;2.03;;;;;;;;;;6277325;22;19995;-71
2022/06/29 02:57:08;;;;;;;8.77;1.98;;;;;;;;;;6277627;22;20004;-71
2022/06/29 02:59:34;;;;;;;6.35;1.42;;;;;;;;;;6277035;22;20007;-72
2022/06/29 03:01:59;;;;;;;5.53;1.20;;;;;;;;;;6276930;22;19992;-71
2022/06/29 03:04:24;;;;;;;11.88;1.50;;;;;;;;;;6277091;22;19995;-72
2022/06/29 03:06:50;;;;;;;12.60;1.52;;;;;;;;;;6277072;22;20010;-71
2022/06/29 03:09:15;;;;;;;4.45;1.67;;;;;;;;;;6277737;22;20015;-71
2022/06/29 03:11:40;;;;;;;8.27;1.63;;;;;;;;;;6277105;22;19995;-71
2022/06/29 03:14:05;;;;;;;10.52;1.67;;;;;;;;;;6277528;22;20088;-71
2022/06/29 03:16:30;;;;;;;6.63;1.88;;;;;;;;;;6276669;22;19992;-71
2022/06/29 03:18:56;;;;;;;4.80;1.92;;;;;;;;;;6276922;22;20004;-70
2022/06/29 03:21:21;;;;;;;5.68;1.90;;;;;;;;;;6277176;22;20003;-71
2022/06/29 03:23:46;;;;;;;7.47;1.70;;;;;;;;;;6276917;22;20414;-70
2022/06/29 03:26:12;;;;;;;10.00;1.77;;;;;;;;;;6277354;22;19996;-70
2022/06/29 03:28:37;;;;;;;10.35;1.60;;;;;;;;;;6277351;22;20034;-71
2022/06/29 03:31:03;;;;;;;8.98;2.00;;;;;;;;;;6276649;22;20526;-70
2022/06/29 03:33:28;;;;;;;7.30;1.60;;;;;;;;;;6276849;22;20002;-71
2022/06/29 03:35:53;;;;;;;13.52;2.00;;;;;;;;;;6276460;22;20592;-71
2022/06/29 03:38:19;;;;;;;7.38;1.90;;;;;;;;;;6277225;22;20004;-71
2022/06/29 03:40:44;;;;;;;11.30;2.03;;;;;;;;;;6244414;23;20012;-71
2022/06/29 03:43:09;;;;;;;10.50;2.25;;;;;;;;;;6246605;23;20087;-71
2022/06/29 03:45:34;;;;;;;7.97;2.22;;;;;;;;;;6245786;23;19992;-71
2022/06/29 03:48:00;;;;;;;16.23;2.33;;;;;;;;;;6245922;23;19996;-71
2022/06/29 03:50:25;;;;;;;14.70;2.45;;;;;;;;;;6246156;23;20004;-71
2022/06/29 03:52:50;;;;;;;10.32;2.38;;;;;;;;;;6246290;23;20002;-70
2022/06/29 03:55:16;;;;;;;13.18;2.38;;;;;;;;;;6245759;23;19996;-70
2022/06/29 03:57:41;;;;;;;14.23;2.45;;;;;;;;;;6246304;22;20091;-71
2022/06/29 04:00:07;;;;;;;15.52;2.40;;;;;;;;;;6245428;22;20045;-71
2022/06/29 04:02:32;;;;;;;11.57;2.70;;;;;;;;;;6245959;22;20138;-70
2022/06/29 04:04:58;;;;;;;11.27;2.58;;;;;;;;;;6245977;23;20012;-71
2022/06/29 04:07:24;;;;;;;9.40;2.30;;;;;;;;;;6246201;22;19996;-70
2022/06/29 04:09:49;;;;;;;18.75;2.38;;;;;;;;;;6246188;23;20075;-71
2022/06/29 04:12:14;;;;;;;13.88;2.58;;;;;;;;;;6246299;23;20083;-70
2022/06/29 04:14:39;;;;;;;9.00;2.10;;;;;;;;;;6245999;23;20003;-71
2022/06/29 04:17:05;;;;;;;12.50;3.20;;;;;;;;;;6245847;23;19996;-70
2022/06/29 04:19:30;;;;;;;11.68;2.08;;;;;;;;;;6245889;23;20008;-71
2022/06/29 04:21:55;;;;;;;12.05;2.20;;;;;;;;;;6245803;23;19992;-70
2022/06/29 04:24:21;;;;;;;23.15;2.35;;;;;;;;;;6246485;23;19992;-70
2022/06/29 04:26:46;;;;;;;14.30;2.53;;;;;;;;;;6245639;22;20054;-70
2022/06/29 04:29:12;;;;;;;13.70;2.58;;;;;;;;;;6246459;22;19996;-70
2022/06/29 04:31:37;;;;;;;7.78;2.75;;;;;;;;;;6245686;22;19996;-71
2022/06/29 04:34:03;;;;;;;17.40;3.58;;;;;;;;;;6246134;23;20036;-70
2022/06/29 04:36:28;;;;;;;20.95;3.67;;;;;;;;;;6245717;22;20004;-71
2022/06/29 04:38:54;;;;;;;13.30;3.33;;;;;;;;;;6245878;22;20008;-71
2022/06/29 04:41:19;;;;;;;17.27;3.25;;;;;;;;;;6276639;22;20057;-71
2022/06/29 04:43:46;;;;;;;18.00;3.38;;;;;;;;;;6276653;22;19991;-71
2022/06/29 04:46:20;;;;;;;11.80;2.95;;;;;;;;;;6276490;22;20018;-71
2022/06/29 04:48:56;;;;;;;18.08;3.22;;;;;;;;;;6276005;22;20336;-71
2022/06/29 04:51:21;;;;;;;18.45;2.35;;;;;;;;;;6276415;22;20000;-71
2022/06/29 04:53:47;;;;;;;8.95;2.40;;;;;;;;;;6276587;22;20128;-70
2022/06/29 04:56:13;;;;;;;10.93;2.60;;;;;;;;;;6276516;22;20061;-71
2022/06/29 04:58:39;;;;;;;17.33;2.67;;;;;;;;;;6276479;22;20007;-71
2022/06/29 05:01:04;;;;;;;7.68;2.30;;;;;;;;;;6276317;22;20305;-71
2022/06/29 05:03:29;;;;;;;12.50;2.05;;;;;;;;;;6276420;22;20002;-71
2022/06/29 05:05:54;;;;;;;15.60;2.67;;;;;;;;;;6275817;22;19995;-71
2022/06/29 05:08:20;;;;;;;8.18;2.28;;;;;;;;;;6276671;22;20004;-71
2022/06/29 05:10:45;;;;;;;10.20;2.03;;;;;;;;;;6276451;22;20396;-71
2022/06/29 05:13:10;;;;;;;16.95;2.55;;;;;;;;;;6278665;22;20014;-71
2022/06/29 05:15:36;;;;;;;16.05;2.42;;;;;;;;;;6278244;22;20011;-71
2022/06/29 05:18:01;;;;;;;11.95;1.90;;;;;;;;;;6278056;22;20323;-71
2022/06/29 05:20:27;;;;;;;10.02;2.70;;;;;;;;;;6278345;22;19996;-71
2022/06/29 05:22:53;;;;;;;9.68;2.83;;;;;;;;;;6278536;22;20004;-71
2022/06/29 05:25:19;;;;;;;11.20;2.75;;;;;;;;;;6278448;22;20126;-71
2022/06/29 05:27:45;;;;;;;12.57;2.20;;;;;;;;;;6278437;22;19992;-71
2022/06/29 05:30:10;;;;;;;12.35;2.15;;;;;;;;;;6278188;22;20006;-71
2022/06/29 05:32:35;;;;;;;10.77;1.95;;;;;;;;;;6251156;22;19999;-71
2022/06/29 05:35:01;;;;;;;10.82;2.10;;;;;;;;;;6278202;22;20078;-71
2022/06/29 05:37:26;;;;;;;15.30;2.47;;;;;;;;;;6278259;22;20057;-71
2022/06/29 05:39:51;;;;;;;11.25;2.30;;;;;;;;;;6278208;22;20019;-70
2022/06/29 05:42:16;;;;;;;9.25;2.33;;;;;;;;;;6278726;22;20000;-71
2022/06/29 05:44:42;;;;;;;8.10;2.25;;;;;;;;;;6278075;22;20447;-71
2022/06/29 05:47:07;;;;;;;8.63;2.20;;;;;;;;;;6278140;22;20045;-70
2022/06/29 05:49:34;;;;;;;15.27;2.20;;;;;;;;;;6278032;22;19992;-71
2022/06/29 05:51:59;;;;;;;13.80;2.13;;;;;;;;;;6278094;22;20031;-71
2022/06/29 05:54:24;;;;;;;11.63;1.88;;;;;;;;;;6278331;22;19999;-71
2022/06/29 05:56:49;;;;;;;22.35;2.75;;;;;;;;;;6278001;22;19996;-71
2022/06/29 05:59:15;;;;;;;14.27;2.28;;;;;;;;;;6278142;22;20011;-71
2022/06/29 06:01:40;;;;;;;12.15;2.42;;;;;;;;;;6277735;22;20462;-71
2022/06/29 06:04:05;;;;;;;8.18;2.10;;;;;;;;;;6278135;22;19999;-71
2022/06/29 06:06:30;;;;;;;10.82;2.53;;;;;;;;;;6277769;22;20030;-71
2022/06/29 06:08:56;;;;;;;7.00;1.98;;;;;;;;;;6277992;22;20070;-71
2022/06/29 06:11:21;;;;;;;12.93;2.78;;;;;;;;;;6277763;22;19992;-71
2022/06/29 06:13:46;;;;;;;14.93;2.30;;;;;;;;;;6277878;22;20012;-71
2022/06/29 06:16:12;;;;;;;13.38;2.47;;;;;;;;;;6277399;22;19995;-71
2022/06/29 06:18:37;;;;;;;12.40;1.75;;;;;;;;;;6278054;22;20427;-71
2022/06/29 06:21:02;;;;;;;15.93;2.63;;;;;;;;;;6277761;22;20309;-71
2022/06/29 06:23:27;;;;;;;13.98;2.50;;;;;;;;;;6277464;22;19992;-71
2022/06/29 06:25:53;;;;;;;10.90;1.90;;;;;;;;;;6277075;22;20324;-70
2022/06/29 06:28:18;;;;;;;9.55;2.00;;;;;;;;;;6278077;22;20007;-71
2022/06/29 06:30:43;;;;;;;15.07;2.85;;;;;;;;;;6277285;22;20408;-71
2022/06/29 06:33:08;;;;;;;9.23;1.95;;;;;;;;;;6278024;22;19999;-71
2022/06/29 06:35:34;;;;;;;10.85;2.42;;;;;;;;;;6277805;22;20056;-71
2022/06/29 06:38:01;;;;;;;11.05;2.58;;;;;;;;;;6277645;22;20061;-71
2022/06/29 06:43:10;;;;;;;13.23;2.25;;;;;;;;;;6277316;22;20462;-70
2022/06/29 06:45:35;;;;;;;11.85;2.13;;;;;;;;;;6250452;22;20023;-71
2022/06/29 06:48:00;;;;;;;10.27;2.00;;;;;;;;;;6277904;22;20004;-71
2022/06/29 06:50:26;;;;;;;16.98;2.42;;;;;;;;;;6277420;22;20297;-71
2022/06/29 06:52:51;;;;;;;7.47;2.15;;;;;;;;;;6277655;22;20447;-71
2022/06/29 06:55:16;;;;;;;12.82;2.78;;;;;;;;;;6277310;22;20069;-72
2022/06/29 06:57:42;;;;;;;11.38;2.40;;;;;;;;;;6277811;22;20003;-71
2022/06/29 07:00:07;;;;;;;10.00;2.20;;;;;;;;;;6277049;22;20468;-72
2022/06/29 07:02:32;;;;;;;12.15;2.63;;;;;;;;;;6277227;22;20028;-72
2022/06/29 07:04:58;;;;;;;10.70;2.88;;;;;;;;;;6277256;22;20003;-72
2022/06/29 07:07:23;;;;;;;10.48;2.53;;;;;;;;;;6277660;22;20141;-72
2022/06/29 07:09:48;;;;;;;9.73;2.47;;;;;;;;;;6277740;22;20007;-72
2022/06/29 07:12:13;;;;;;;13.25;2.25;;;;;;;;;;6277518;22;19998;-72
2022/06/29 07:14:39;;;;;;;14.02;2.50;;;;;;;;;;6276843;22;19995;-72
2022/06/29 07:17:04;;;;;;;11.95;2.35;;;;;;;;;;6277209;22;20008;-70
2022/06/29 07:19:29;;;;;;;9.25;2.28;;;;;;;;;;6277311;22;19999;-72
2022/06/29 07:21:55;;;;;;;10.98;2.30;;;;;;;;;;6250453;22;20007;-71
2022/06/29 07:24:20;;;;;;;8.30;2.13;;;;;;;;;;6277420;22;20007;-72
2022/06/29 07:26:45;;;;;;;10.55;2.10;;;;;;;;;;6277266;22;19996;-71
2022/06/29 07:29:11;;;;;;;10.27;2.28;;;;;;;;;;6277380;22;20042;-71
2022/06/29 07:31:36;;;;;;;10.75;2.38;;;;;;;;;;6277183;22;20427;-71
2022/06/29 07:34:01;;;;;;;17.85;3.25;;;;;;;;;;6277082;22;20019;-70
2022/06/29 07:36:27;;;;;;;16.90;3.92;;;;;;;;;;6276392;22;20213;-71
2022/06/29 07:38:52;;;;;;;11.88;2.67;;;;;;;;;;6276664;22;20011;-70
2022/06/29 07:41:17;;;;;;;8.38;2.25;;;;;;;;;;6277018;22;20011;-71
2022/06/29 07:43:43;;;;;;;12.75;2.33;;;;;;;;;;6276922;22;19992;-71
2022/06/29 07:46:09;;;;;;;9.80;2.28;;;;;;;;;;6276930;22;19999;-70
2022/06/29 07:48:34;;;;;;;12.80;2.30;;;;;;;;;;6276835;22;20354;-71
2022/06/29 07:50:59;;;;;;;12.20;3.03;;;;;;;;;;6276666;22;19992;-70
2022/06/29 07:53:25;;;;;;;15.15;2.60;;;;;;;;;;6277082;22;20030;-71
2022/06/29 07:55:50;;;;;;;13.63;2.78;;;;;;;;;;6276835;22;19996;-71
2022/06/29 07:58:15;;;;;;;13.35;2.72;;;;;;;;;;6276752;22;20042;-71
2022/06/29 08:00:41;;;;;;;14.93;2.53;;;;;;;;;;6276271;22;20008;-72
2022/06/29 08:03:07;;;;;;;11.35;2.47;;;;;;;;;;6276908;22;19995;-71
2022/06/29 08:05:32;;;;;;;13.32;2.85;;;;;;;;;;6276823;22;19992;-71
2022/06/29 08:07:58;;;;;;;14.00;2.70;;;;;;;;;;6276384;22;20416;-71
2022/06/29 08:10:23;;;;;;;12.68;2.80;;;;;;;;;;6277147;22;20141;-71
2022/06/29 08:12:48;;;;;;;15.55;2.95;;;;;;;;;;6276187;22;20419;-72
2022/06/29 08:15:15;;;;;;;11.93;2.45;;;;;;;;;;6277027;22;20011;-70
2022/06/29 08:17:41;;;;;;;11.02;2.97;;;;;;;;;;6276330;22;20004;-70
2022/06/29 08:20:06;;;;;;;13.57;3.15;;;;;;;;;;6276500;22;20014;-72
2022/06/29 08:22:32;;;;;;;6.85;2.67;;;;;;;;;;6277022;22;20004;-73
2022/06/29 08:24:57;;;;;;;11.27;2.67;;;;;;;;;;6276725;22;20397;-72
2022/06/29 08:27:22;;;;;;;13.90;2.47;;;;;;;;;;6276891;22;20178;-72
2022/06/29 08:29:48;;;;;;;13.75;2.30;;;;;;;;;;6277010;22;20015;-73
2022/06/29 08:32:13;;;;;;;11.68;2.40;;;;;;;;;;6276745;22;20003;-72
2022/06/29 08:34:39;;;;;;;9.38;2.65;;;;;;;;;;6276218;22;19996;-72
2022/06/29 08:37:05;;;;;;;12.68;2.40;;;;;;;;;;6276529;22;20015;-72
2022/06/29 08:39:30;;;;;;;13.20;2.70;;;;;;;;;;6276078;22;20004;-72
2022/06/29 08:41:56;;;;;;;12.93;2.78;;;;;;;;;;6276061;22;20003;-72
2022/06/29 08:44:22;;;;;;;11.23;2.47;;;;;;;;;;6276285;22;20004;-72
2022/06/29 08:46:47;;;;;;;10.60;2.60;;;;;;;;;;6277146;22;19996;-72
2022/06/29 08:49:12;;;;;;;10.93;2.72;;;;;;;;;;6278729;22;20002;-72
2022/06/29 08:51:39;;;;;;;12.05;2.42;;;;;;;;;;6278007;22;20451;-73
2022/06/29 08:54:07;;;;;;;11.52;2.47;;;;;;;;;;6278497;22;19995;-70
2022/06/29 08:56:34;;;;;;;11.52;2.13;;;;;;;;;;6278280;22;20066;-73
2022/06/29 08:59:01;;;;;;;9.98;2.30;;;;;;;;;;6277595;22;20507;-73
2022/06/29 09:01:28;;;;;;;11.40;2.20;;;;;;;;;;6278367;22;20071;-72
2022/06/29 09:03:54;;;;;;;10.30;2.15;;;;;;;;;;6277601;22;20481;-72
2022/06/29 09:06:19;;;;;;;11.77;2.47;;;;;;;;;;6278124;22;20003;-72
2022/06/29 09:08:44;;;;;;;11.88;2.60;;;;;;;;;;6251053;22;20000;-73
2022/06/29 09:11:28;;;;;;;10.77;2.63;;;;;;;;;;6278577;22;20054;-72
2022/06/29 09:13:53;;;;;;;;;;;;;;;;;;6278269;22;20015;-72
2022/06/29 09:16:18;;;;;;;10.85;2.53;;;;;;;;;;6277195;22;19904;-71
2022/06/29 09:18:43;;;;;;;7.63;2.20;;;;;;;;;;6278058;22;20018;-71
2022/06/29 09:21:08;;;;;;;10.13;2.53;;;;;;;;;;6278362;22;20245;-71
2022/06/29 09:23:34;;;;;;;12.20;2.30;;;;;;;;;;6278438;22;20201;-71
2022/06/29 09:26:00;;;;;;;10.77;2.45;;;;;;;;;;6278280;22;20221;-71
2022/06/29 09:28:26;;;;;;;8.35;2.35;;;;;;;;;;6265107;22;20010;-73
2022/06/29 09:30:55;;;;;;;7.70;2.00;;;;;;;;;;6276305;22;19996;-73
2022/06/29 09:33:24;;;;;;;10.80;2.08;;;;;;;;;;6277749;22;20003;-72
2022/06/29 09:36:08;;;;;;;10.02;1.83;;;;;;;;;;6277696;22;20090;-72
2022/06/29 09:38:33;;;;;;;9.35;1.90;;;;;;;;;;6277442;22;20432;-72
2022/06/29 09:40:59;;;;;;;7.47;1.90;;;;;;;;;;6278214;22;20023;-72
2022/06/29 09:43:24;;;;;;;8.15;1.60;;;;;;;;;;6277705;22;20311;-72
2022/06/29 09:45:52;;;;;;;9.60;2.20;;;;;;;;;;6277612;22;20022;-72
2022/06/29 09:48:20;;;;;;;7.05;1.98;;;;;;;;;;6278323;22;20007;-72
2022/06/29 09:50:46;;;;;;;7.20;1.88;;;;;;;;;;6277594;22;20019;-71
2022/06/29 09:53:12;;;;;;;9.52;1.90;;;;;;;;;;6277838;22;19992;-71
2022/06/29 09:55:37;;;;;;;8.65;1.95;;;;;;;;;;6277626;22;20008;-72
2022/06/29 09:58:03;;;;;;;8.80;1.88;;;;;;;;;;6276962;22;20004;-71
2022/06/29 10:03:13;;;;;;;10.60;2.15;;;;;;;;;;6277289;22;20554;-72
2022/06/29 10:06:04;;;;;;;8.23;2.35;;;;;;;;;;6277683;22;20023;-72
2022/06/29 10:08:30;;;;;;;11.68;2.10;;;;;;;;;;6277935;22;20110;-72
2022/06/29 10:10:57;;;;;;;8.80;1.77;;;;;;;;;;6277053;22;20015;-72
2022/06/29 10:13:39;;;;;;;9.57;2.10;;;;;;;;;;6277594;22;20361;-72
2022/06/29 10:16:13;;;;;;;9.27;2.30;;;;;;;;;;6277628;22;20003;-72
2022/06/29 10:18:46;;;;;;;8.27;2.55;;;;;;;;;;6277660;22;20050;-73
2022/06/29 10:21:22;;;;;;;7.37;2.17;;;;;;;;;;6278152;22;19992;-73
2022/06/29 10:23:57;;;;;;;9.55;2.25;;;;;;;;;;6278041;22;20304;-71
2022/06/29 10:26:25;;;;;;;8.05;2.20;;;;;;;;;;6277443;22;20514;-71
2022/06/29 10:28:50;;;;;;;10.25;2.30;;;;;;;;;;6277894;22;20483;-71
2022/06/29 10:31:15;;;;;;;8.07;1.77;;;;;;;;;;6278024;22;20182;-71
2022/06/29 10:33:41;;;;;;;5.30;1.65;;;;;;;;;;6278272;22;19995;-71
2022/06/29 10:36:07;;;;;;;7.25;1.88;;;;;;;;;;6278040;22;20319;-70
2022/06/29 10:38:52;;;;;;;11.57;1.88;;;;;;;;;;6277822;22;20004;-73
2022/06/29 10:44:02;;;;;;;6.93;1.83;;;;;;;;;;6277511;22;20069;-72
2022/06/29 10:46:28;;;;;;;11.48;2.25;;;;;;;;;;6277726;22;20281;-72
2022/06/29 10:49:28;;;;;;;12.85;1.85;;;;;;;;;;6277712;22;20000;-72
2022/06/29 10:51:55;;;;;;;8.68;1.75;;;;;;;;;;6153816;23;20005;-72
2022/06/29 10:54:23;;;;;;;4.75;1.25;;;;;;;;;;6252364;22;20012;-72
2022/06/29 10:56:49;;;;;;;3.47;0.98;;;;;;;;;;6277615;22;20069;-72
2022/06/29 10:59:32;;;;;;;8.10;1.40;;;;;;;;;;6277668;22;20011;-72
2022/06/29 11:01:57;;;;;;;;;;;;;;;;;;6277848;22;20008;-72
2022/06/29 11:04:23;;;;;;;4.65;1.50;;;;;;;;;;6277766;22;19941;-71
2022/06/29 11:12:29;;;;;;;;;;;;;;;;;;6277671;22;20014;-71
2022/06/29 11:17:52;;;;;;;3.13;0.93;;;;;;;;;;6226148;22;20102;-71
2022/06/29 11:20:18;;;;;;;2.58;0.90;;;;;;;;;;6277062;22;20039;-72
2022/06/29 11:22:50;;;;;;;2.45;0.70;;;;;;;;;;6277414;22;20083;-72
2022/06/29 11:25:15;;;;;;;2.75;0.73;;;;;;;;;;6277564;22;20401;-72
2022/06/29 11:27:40;;;;;;;2.78;0.80;;;;;;;;;;6277160;22;20007;-72
2022/06/29 11:30:10;;;;;;;1.70;1.00;;;;;;;;;;6277507;22;20007;-71
2022/06/29 11:32:42;;;;;;;3.03;0.80;;;;;;;;;;6277343;22;20016;-71
2022/06/29 11:35:09;;;;;;;2.17;0.80;;;;;;;;;;6277126;22;20054;-71
2022/06/29 11:37:34;;;;;;;3.72;0.82;;;;;;;;;;6277022;22;20387;-71
2022/06/29 11:40:00;;;;;;;3.10;0.80;;;;;;;;;;6276978;22;20008;-71
2022/06/29 11:45:13;;;;;;;4.85;0.82;;;;;;;;;;6276776;22;20458;-71
2022/06/29 11:47:48;;;;;;;3.90;0.82;;;;;;;;;;6277012;22;20004;-71
2022/06/29 11:50:15;;;;;;;3.78;1.33;;;;;;;;;;6276980;22;20010;-72
2022/06/29 11:52:44;;;;;;;7.25;0.93;;;;;;;;;;6276916;22;20006;-72
2022/06/29 11:55:09;;;;;;;3.30;1.00;;;;;;;;;;6276716;22;20716;-72
2022/06/29 11:57:34;;;;;;;5.78;1.00;;;;;;;;;;6277067;22;20031;-73
2022/06/29 12:00:06;;;;;;;3.53;0.80;;;;;;;;;;6276919;22;20012;-72
2022/06/29 12:02:34;;;;;;;3.13;0.75;;;;;;;;;;6276974;22;20035;-72
2022/06/29 12:05:00;;;;;;;2.97;0.70;;;;;;;;;;6276886;22;20057;-72
2022/06/29 12:07:25;;;;;;;3.80;0.90;;;;;;;;;;6276960;22;20008;-72
2022/06/29 12:09:51;;;;;;;3.55;1.08;;;;;;;;;;6276810;22;19992;-73
2022/06/29 12:12:17;;;;;;;5.25;0.93;;;;;;;;;;6277280;22;20426;-72
2022/06/29 12:14:42;;;;;;;4.82;0.98;;;;;;;;;;6276766;22;20087;-72
2022/06/29 12:17:13;;;;;;;2.97;0.80;;;;;;;;;;6276838;22;20402;-72
2022/06/29 12:19:38;;;;;;;3.83;1.10;;;;;;;;;;6276471;22;20328;-72
2022/06/29 12:22:04;;;;;;;3.50;1.08;;;;;;;;;;6277002;22;20004;-72
2022/06/29 12:24:29;;;;;;;4.78;1.40;;;;;;;;;;6277364;22;20049;-72
2022/06/29 12:26:55;;;;;;;3.63;0.85;;;;;;;;;;6276732;22;19991;-72
2022/06/29 12:29:20;;;;;;;3.95;1.08;;;;;;;;;;6276495;22;20014;-72
2022/06/29 12:31:45;;;;;;;3.90;1.10;;;;;;;;;;6272148;22;19992;-72
2022/06/29 12:34:12;;;;;;;5.70;1.42;;;;;;;;;;6274411;22;19988;-73
2022/06/29 12:36:37;;;;;;;3.38;1.00;;;;;;;;;;6275672;22;20011;-72
2022/06/29 12:39:03;;;;;;;3.55;0.90;;;;;;;;;;6275769;22;20007;-72
2022/06/29 12:41:29;;;;;;;2.90;0.80;;;;;;;;;;6275983;22;20401;-73
2022/06/29 12:43:54;;;;;;;2.72;0.90;;;;;;;;;;6275965;22;20012;-72
2022/06/29 12:46:19;;;;;;;4.55;0.90;;;;;;;;;;6276227;22;20066;-72
2022/06/29 12:48:45;;;;;;;4.43;1.20;;;;;;;;;;6276506;22;20053;-72
2022/06/29 12:51:10;;;;;;;1.88;0.68;;;;;;;;;;6276528;22;20039;-72
2022/06/29 12:53:36;;;;;;;2.15;0.82;;;;;;;;;;6276761;22;19991;-72
2022/06/29 12:56:01;;;;;;;3.80;1.00;;;;;;;;;;6276628;22;20425;-72
2022/06/29 12:58:26;;;;;;;2.78;0.88;;;;;;;;;;6276700;22;20016;-72
2022/06/29 13:00:52;;;;;;;4.85;1.10;;;;;;;;;;6276539;22;20312;-72
2022/06/29 13:03:17;;;;;;;2.20;0.77;;;;;;;;;;6277017;22;20023;-72
2022/06/29 13:05:42;;;;;;;4.55;1.17;;;;;;;;;;6276663;22;20011;-72
2022/06/29 13:08:07;;;;;;;2.47;0.93;;;;;;;;;;6276964;22;20000;-72
2022/06/29 13:10:33;;;;;;;3.83;1.13;;;;;;;;;;6276382;22;20412;-72
2022/06/29 13:13:00;;;;;;;4.18;0.90;;;;;;;;;;6276850;22;20007;-72
2022/06/29 13:15:25;;;;;;;2.13;0.73;;;;;;;;;;6276718;22;19998;-72
2022/06/29 13:17:50;;;;;;;3.83;0.98;;;;;;;;;;6276394;22;20078;-72
2022/06/29 13:20:16;;;;;;;3.17;0.75;;;;;;;;;;6276831;22;20008;-72
2022/06/29 13:22:42;;;;;;;1.95;0.93;;;;;;;;;;6276444;22;19991;-73
2022/06/29 13:25:08;;;;;;;2.67;0.80;;;;;;;;;;6276297;22;20539;-72
2022/06/29 13:27:33;;;;;;;5.50;1.00;;;;;;;;;;6276578;22;20024;-72
2022/06/29 13:29:59;;;;;;;3.90;0.90;;;;;;;;;;6276467;22;20070;-72
2022/06/29 13:32:24;;;;;;;3.78;0.80;;;;;;;;;;6277222;22;19988;-72
2022/06/29 13:34:49;;;;;;;3.17;0.98;;;;;;;;;;6278503;22;20003;-72
2022/06/29 13:37:14;;;;;;;3.75;0.95;;;;;;;;;;6278286;22;20430;-72
2022/06/29 13:39:40;;;;;;;3.10;0.77;;;;;;;;;;6278297;22;20321;-72
2022/06/29 13:42:05;;;;;;;3.03;0.70;;;;;;;;;;6278160;22;20007;-72
2022/06/29 13:44:32;;;;;;;2.88;0.73;;;;;;;;;;6278149;22;19988;-72
2022/06/29 13:46:57;;;;;;;2.97;0.63;;;;;;;;;;6278300;22;19999;-72
2022/06/29 13:49:23;;;;;;;1.95;0.80;;;;;;;;;;6278581;22;20030;-72
2022/06/29 13:51:48;;;;;;;3.63;0.75;;;;;;;;;;6278243;22;20050;-72
2022/06/29 13:54:13;;;;;;;4.13;0.85;;;;;;;;;;6278108;22;19996;-72
2022/06/29 13:56:39;;;;;;;5.60;0.90;;;;;;;;;;6277932;22;20138;-72
2022/06/29 13:59:04;;;;;;;1.98;0.82;;;;;;;;;;6278258;22;20324;-72
2022/06/29 14:01:29;;;;;;;2.60;0.88;;;;;;;;;;6278052;22;20014;-72
2022/06/29 14:03:57;;;;;;;2.75;0.90;;;;;;;;;;6277697;22;20458;-72
2022/06/29 14:06:23;;;;;;;3.38;1.00;;;;;;;;;;6278338;22;19995;-72
2022/06/29 14:08:48;;;;;;;3.20;0.77;;;;;;;;;;6278051;22;20483;-72
2022/06/29 14:11:14;;;;;;;2.92;0.68;;;;;;;;;;6278220;22;20003;-71
2022/06/29 14:13:39;;;;;;;4.60;0.80;;;;;;;;;;6278331;22;20073;-71
2022/06/29 14:16:04;;;;;;;2.50;0.82;;;;;;;;;;6278206;22;20002;-71
2022/06/29 14:18:29;;;;;;;4.05;0.80;;;;;;;;;;6278074;22;20012;-71
2022/06/29 14:20:56;;;;;;;3.30;0.90;;;;;;;;;;6277973;22;19996;-71
2022/06/29 14:23:22;;;;;;;3.75;0.90;;;;;;;;;;6278113;22;20065;-71
2022/06/29 14:25:50;;;;;;;3.03;0.93;;;;;;;;;;6277911;22;20561;-72
2022/06/29 14:28:15;;;;;;;2.72;0.90;;;;;;;;;;6277994;22;20080;-71
2022/06/29 14:30:40;;;;;;;3.78;1.25;;;;;;;;;;6277759;22;19992;-72
2022/06/29 14:33:05;;;;;;;4.13;1.20;;;;;;;;;;6277656;22;20023;-71
2022/06/29 14:35:31;;;;;;;5.95;1.00;;;;;;;;;;6277914;22;20024;-72
2022/06/29 14:37:56;;;;;;;2.80;0.90;;;;;;;;;;6277675;22;20016;-72
2022/06/29 14:40:21;;;;;;;4.35;1.10;;;;;;;;;;6277612;22;20084;-72
2022/06/29 14:42:47;;;;;;;3.08;0.80;;;;;;;;;;6277789;22;20473;-72
2022/06/29 14:45:12;;;;;;;6.82;1.08;;;;;;;;;;6277527;22;19996;-71
2022/06/29 14:47:37;;;;;;;3.80;1.10;;;;;;;;;;6277855;22;19999;-71
2022/06/29 14:50:03;;;;;;;2.97;0.82;;;;;;;;;;6277754;22;20159;-71
2022/06/29 14:52:28;;;;;;;3.67;1.17;;;;;;;;;;6277886;22;19992;-71
2022/06/29 14:54:54;;;;;;;5.15;1.85;;;;;;;;;;6277568;22;20054;-71